createdAt,value
2018-09-27T00:02:08.312Z,8.30
2018-09-27T00:04:39.205Z,8.30
2018-09-27T00:07:10.119Z,8.30
2018-09-27T00:09:40.911Z,8.30
2018-09-27T00:12:12.596Z,8.30
2018-09-27T00:14:43.375Z,8.30
2018-09-27T00:17:14.915Z,8.30
2018-09-27T00:19:45.770Z,8.30
2018-09-27T00:22:16.608Z,8.20
2018-09-27T00:24:47.500Z,8.20
2018-09-27T00:27:18.904Z,8.20
2018-09-27T00:29:49.809Z,8.20
2018-09-27T00:32:20.733Z,8.20
2018-09-27T00:34:51.463Z,8.20
2018-09-27T00:37:22.316Z,8.10
2018-09-27T00:39:53.135Z,8.10
2018-09-27T00:42:23.917Z,8.20
2018-09-27T00:44:54.651Z,8.20
2018-09-27T00:47:25.611Z,8.30
2018-09-27T00:49:57.366Z,8.20
2018-09-27T00:52:28.640Z,8.20
2018-09-27T00:54:59.341Z,8.20
2018-09-27T00:57:30.143Z,8.20
2018-09-27T01:00:00.804Z,8.20
2018-09-27T01:02:31.569Z,8.20
2018-09-27T01:05:02.223Z,8.20
2018-09-27T01:07:33.938Z,8.20
2018-09-27T01:10:04.414Z,8.30
2018-09-27T01:12:34.746Z,8.20
2018-09-27T01:15:05.099Z,8.30
2018-09-27T01:17:35.596Z,8.20
2018-09-27T01:20:05.937Z,8.20
2018-09-27T01:22:36.357Z,8.10
2018-09-27T01:25:07.003Z,8.10
2018-09-27T01:27:37.529Z,8.10
2018-09-27T01:30:08.775Z,8.20
2018-09-27T01:32:39.221Z,8.10
2018-09-27T01:35:09.712Z,8.10
2018-09-27T01:37:40.054Z,8.10
2018-09-27T01:40:10.423Z,8.10
2018-09-27T01:42:40.968Z,8.10
2018-09-27T01:45:11.372Z,8.00
2018-09-27T01:47:41.826Z,8.00
2018-09-27T01:50:12.136Z,7.80
2018-09-27T01:52:42.388Z,7.80
2018-09-27T01:55:13.558Z,7.80
2018-09-27T01:57:43.891Z,7.70
2018-09-27T02:00:14.267Z,7.70
2018-09-27T02:02:44.636Z,7.60
2018-09-27T02:05:14.927Z,7.60
2018-09-27T02:07:45.175Z,7.50
2018-09-27T02:10:15.570Z,7.50
2018-09-27T02:12:46.012Z,7.50
2018-09-27T02:15:16.412Z,7.50
2018-09-27T02:17:46.854Z,7.50
2018-09-27T02:20:17.237Z,7.40
2018-09-27T02:22:47.563Z,7.50
2018-09-27T02:25:17.954Z,7.40
2018-09-27T02:27:48.218Z,7.30
2018-09-27T02:30:18.511Z,7.20
2018-09-27T02:32:48.975Z,7.10
2018-09-27T02:35:19.257Z,7.00
2018-09-27T02:37:50.459Z,7.00
2018-09-27T02:40:20.805Z,7.00
2018-09-27T02:42:51.332Z,6.90
2018-09-27T02:45:21.707Z,6.90
2018-09-27T02:47:52.006Z,6.90
2018-09-27T02:50:22.443Z,6.80
2018-09-27T02:52:53.105Z,6.80
2018-09-27T02:55:23.357Z,6.80
2018-09-27T02:57:53.908Z,6.80
2018-09-27T03:00:24.296Z,6.80
2018-09-27T03:02:54.882Z,6.90
2018-09-27T03:05:25.488Z,6.70
2018-09-27T03:07:55.834Z,6.60
2018-09-27T03:10:26.167Z,6.50
2018-09-27T03:12:56.463Z,6.50
2018-09-27T03:15:26.825Z,6.50
2018-09-27T03:17:57.359Z,6.60
2018-09-27T03:20:27.678Z,6.50
2018-09-27T03:22:58.139Z,6.50
2018-09-27T03:25:28.416Z,6.50
2018-09-27T03:27:59.008Z,6.40
2018-09-27T03:30:29.256Z,6.40
2018-09-27T03:32:59.696Z,6.30
2018-09-27T03:35:30.170Z,6.30
2018-09-27T03:38:00.702Z,6.20
2018-09-27T03:40:31.119Z,6.10
2018-09-27T03:43:01.664Z,6.00
2018-09-27T03:45:32.109Z,6.00
2018-09-27T03:48:02.537Z,5.90
2018-09-27T03:50:32.898Z,5.90
2018-09-27T03:53:03.349Z,5.80
2018-09-27T03:55:33.667Z,5.80
2018-09-27T03:58:03.953Z,5.80
2018-09-27T04:00:34.249Z,5.80
2018-09-27T04:03:04.800Z,5.80
2018-09-27T04:05:35.293Z,5.80
2018-09-27T04:08:05.832Z,5.80
2018-09-27T04:10:36.307Z,5.80
2018-09-27T04:13:06.852Z,5.70
2018-09-27T04:15:37.289Z,5.70
2018-09-27T04:18:07.662Z,5.60
2018-09-27T04:20:43.340Z,5.40
2018-09-27T04:23:13.654Z,5.40
2018-09-27T04:25:44.032Z,5.30
2018-09-27T04:28:14.578Z,5.20
2018-09-27T04:30:45.096Z,5.10
2018-09-27T04:33:15.759Z,5.00
2018-09-27T04:35:46.217Z,5.10
2018-09-27T04:38:16.559Z,5.20
2018-09-27T04:40:47.003Z,5.20
2018-09-27T04:43:17.375Z,5.00
2018-09-27T04:45:47.812Z,5.00
2018-09-27T04:48:18.296Z,4.90
2018-09-27T04:50:48.682Z,4.80
2018-09-27T04:53:19.020Z,4.80
2018-09-27T04:55:49.394Z,4.80
2018-09-27T04:58:19.833Z,4.90
2018-09-27T05:00:50.326Z,5.00
2018-09-27T05:03:20.850Z,5.10
2018-09-27T05:05:51.353Z,5.10
2018-09-27T05:08:22.053Z,5.20
2018-09-27T05:10:52.519Z,5.20
2018-09-27T05:13:22.798Z,5.20
2018-09-27T05:15:53.390Z,5.20
2018-09-27T05:18:23.843Z,5.00
2018-09-27T05:20:54.420Z,4.90
2018-09-27T05:23:24.869Z,4.90
2018-09-27T05:25:55.402Z,4.80
2018-09-27T05:28:25.747Z,4.80
2018-09-27T05:30:56.346Z,4.80
2018-09-27T05:33:26.810Z,4.80
2018-09-27T05:35:57.323Z,4.80
2018-09-27T05:38:28.426Z,5.00
2018-09-27T05:40:59.035Z,5.30
2018-09-27T05:43:29.470Z,5.80
2018-09-27T05:46:00.031Z,6.40
2018-09-27T05:48:31.258Z,6.80
2018-09-27T05:51:02.321Z,7.20
2018-09-27T05:53:33.090Z,7.60
2018-09-27T05:56:03.674Z,8.00
2018-09-27T05:58:34.186Z,8.40
2018-09-27T06:01:04.909Z,8.90
2018-09-27T06:03:35.646Z,9.30
2018-09-27T06:06:06.530Z,9.50
2018-09-27T06:08:37.020Z,9.80
2018-09-27T06:11:07.460Z,10.10
2018-09-27T06:13:38.349Z,10.30
2018-09-27T06:16:09.762Z,10.50
2018-09-27T06:18:40.347Z,10.80
2018-09-27T06:21:10.901Z,11.00
2018-09-27T06:23:41.411Z,11.20
2018-09-27T06:26:33.339Z,11.20
2018-09-27T06:29:03.875Z,11.30
2018-09-27T06:31:34.315Z,11.50
2018-09-27T06:34:04.850Z,11.80
2018-09-27T06:36:35.436Z,11.90
2018-09-27T06:39:08.202Z,12.10
2018-09-27T06:41:38.903Z,12.30
2018-09-27T06:44:09.993Z,12.70
2018-09-27T06:46:41.366Z,13.10
2018-09-27T06:49:12.130Z,13.40
2018-09-27T06:51:42.566Z,13.80
2018-09-27T06:54:13.109Z,14.10
2018-09-27T06:56:43.973Z,14.50
2018-09-27T06:59:14.592Z,14.90
2018-09-27T07:01:45.379Z,15.20
2018-09-27T07:04:16.084Z,15.70
2018-09-27T07:06:47.387Z,16.00
2018-09-27T07:09:17.990Z,16.60
2018-09-27T07:11:48.792Z,16.90
2018-09-27T07:14:19.409Z,17.20
2018-09-27T07:16:49.966Z,17.50
2018-09-27T07:19:20.505Z,17.70
2018-09-27T07:21:50.903Z,18.20
2018-09-27T07:24:21.419Z,18.50
2018-09-27T07:26:52.099Z,18.90
2018-09-27T07:29:22.872Z,19.20
2018-09-27T07:31:53.486Z,19.70
2018-09-27T07:34:24.145Z,20.20
2018-09-27T07:36:54.531Z,20.50
2018-09-27T07:39:25.009Z,20.80
2018-09-27T07:41:55.560Z,21.20
2018-09-27T07:44:26.064Z,21.50
2018-09-27T07:46:56.417Z,22.00
2018-09-27T07:49:27.160Z,22.10
2018-09-27T07:51:57.579Z,22.30
2018-09-27T07:54:28.179Z,22.60
2018-09-27T07:56:58.683Z,22.70
2018-09-27T07:59:29.194Z,22.90
2018-09-27T08:01:59.571Z,23.20
2018-09-27T08:04:30.101Z,23.30
2018-09-27T08:07:00.794Z,23.40
2018-09-27T08:09:31.534Z,23.40
2018-09-27T08:12:02.153Z,23.60
2018-09-27T08:14:33.382Z,23.80
2018-09-27T08:17:03.963Z,24.00
2018-09-27T08:19:34.562Z,24.10
2018-09-27T08:22:06.461Z,24.90
2018-09-27T08:24:37.156Z,25.10
2018-09-27T08:27:08.048Z,25.10
2018-09-27T08:29:38.823Z,25.30
2018-09-27T08:32:09.749Z,25.60
2018-09-27T08:34:40.184Z,25.40
2018-09-27T08:37:11.002Z,25.60
2018-09-27T08:39:41.606Z,25.60
2018-09-27T08:42:12.710Z,25.80
2018-09-27T08:44:43.449Z,25.60
2018-09-27T08:47:14.034Z,25.70
2018-09-27T08:49:45.847Z,25.90
2018-09-27T08:52:16.288Z,26.10
2018-09-27T08:54:47.665Z,26.30
2018-09-27T08:57:18.404Z,26.50
2018-09-27T08:59:49.077Z,26.60
2018-09-27T09:02:20.221Z,26.70
2018-09-27T09:04:50.633Z,26.50
2018-09-27T09:07:22.182Z,26.60
2018-09-27T09:09:52.962Z,26.30
2018-09-27T09:12:24.031Z,26.50
2018-09-27T09:14:55.129Z,26.30
2018-09-27T09:17:26.096Z,26.60
2018-09-27T09:19:56.981Z,26.80
2018-09-27T09:22:28.239Z,26.80
2018-09-27T09:24:58.853Z,26.90
2018-09-27T09:27:29.592Z,26.80
2018-09-27T09:30:00.068Z,27.10
2018-09-27T09:32:30.584Z,27.20
2018-09-27T09:35:01.371Z,27.40
2018-09-27T09:37:32.278Z,27.70
2018-09-27T09:40:02.791Z,27.80
2018-09-27T09:42:33.622Z,28.00
2018-09-27T09:45:04.393Z,28.10
2018-09-27T09:47:35.054Z,28.00
2018-09-27T09:50:06.480Z,27.70
2018-09-27T09:52:37.763Z,27.90
2018-09-27T09:55:08.892Z,27.80
2018-09-27T09:57:39.624Z,28.30
2018-09-27T10:00:10.598Z,28.10
2018-09-27T10:02:41.302Z,27.90
2018-09-27T10:05:11.846Z,28.10
2018-09-27T10:07:42.727Z,28.20
2018-09-27T10:10:13.278Z,28.20
2018-09-27T10:12:43.759Z,28.30
2018-09-27T10:15:14.416Z,28.70
2018-09-27T10:17:45.093Z,29.00
2018-09-27T10:20:15.571Z,29.20
2018-09-27T10:22:46.111Z,29.40
2018-09-27T10:25:16.805Z,29.30
2018-09-27T10:27:47.412Z,29.70
2018-09-27T10:30:17.977Z,29.60
2018-09-27T10:32:48.397Z,29.80
2018-09-27T10:35:18.867Z,29.90
2018-09-27T10:37:50.022Z,30.00
2018-09-27T10:40:21.095Z,30.30
2018-09-27T10:42:51.857Z,30.80
2018-09-27T10:45:22.736Z,30.90
2018-09-27T10:47:53.211Z,31.30
2018-09-27T10:50:24.646Z,31.30
2018-09-27T10:52:55.853Z,31.40
2018-09-27T10:55:26.552Z,31.30
2018-09-27T10:57:57.486Z,31.60
2018-09-27T11:00:27.947Z,31.60
2018-09-27T11:02:58.637Z,31.70
2018-09-27T11:05:29.084Z,31.70
2018-09-27T11:07:59.748Z,31.70
2018-09-27T11:10:30.464Z,31.90
2018-09-27T11:13:01.136Z,31.80
2018-09-27T11:15:31.845Z,32.00
2018-09-27T11:18:03.604Z,32.20
2018-09-27T11:20:34.152Z,32.40
2018-09-27T11:23:05.409Z,32.60
2018-09-27T11:25:37.389Z,32.90
2018-09-27T11:28:08.573Z,32.60
2018-09-27T11:30:39.370Z,32.70
2018-09-27T11:33:10.415Z,32.90
2018-09-27T11:35:40.883Z,33.50
2018-09-27T11:38:11.591Z,33.10
2018-09-27T11:40:42.096Z,33.10
2018-09-27T11:43:12.847Z,32.90
2018-09-27T11:45:43.541Z,33.10
2018-09-27T11:48:14.079Z,33.00
2018-09-27T11:50:44.812Z,32.90
2018-09-27T11:53:16.265Z,33.00
2018-09-27T11:55:47.676Z,33.40
2018-09-27T11:58:18.384Z,33.30
2018-09-27T12:00:49.654Z,33.50
2018-09-27T12:03:20.372Z,33.30
2018-09-27T12:05:52.151Z,32.90
2018-09-27T12:08:23.201Z,33.10
2018-09-27T12:10:55.344Z,32.70
2018-09-27T12:13:26.748Z,33.30
2018-09-27T12:15:58.141Z,33.50
2018-09-27T12:18:29.248Z,33.70
2018-09-27T12:21:00.098Z,33.70
2018-09-27T12:23:32.680Z,33.80
2018-09-27T12:26:04.679Z,33.50
2018-09-27T12:28:42.303Z,32.80
2018-09-27T12:31:16.918Z,32.60
2018-09-27T12:34:02.655Z,32.50
2018-09-27T12:36:35.796Z,33.00
2018-09-27T12:39:11.025Z,33.50
2018-09-27T12:41:44.179Z,33.50
2018-09-27T12:44:15.057Z,33.80
2018-09-27T12:46:46.539Z,33.70
2018-09-27T12:49:17.282Z,33.50
2018-09-27T12:51:49.920Z,32.80
2018-09-27T12:54:20.703Z,32.90
2018-09-27T12:56:51.618Z,33.00
2018-09-27T12:59:23.437Z,33.10
2018-09-27T13:01:55.575Z,33.10
2018-09-27T13:04:29.004Z,33.40
2018-09-27T13:07:01.305Z,33.30
2018-09-27T13:09:33.467Z,33.00
2018-09-27T13:12:05.846Z,33.10
2018-09-27T13:14:36.605Z,33.40
2018-09-27T13:17:07.311Z,32.80
2018-09-27T13:19:38.497Z,33.00
2018-09-27T13:22:09.365Z,32.70
2018-09-27T13:24:39.952Z,32.00
2018-09-27T13:27:10.631Z,32.00
2018-09-27T13:29:41.617Z,32.20
2018-09-27T13:32:15.576Z,32.40
2018-09-27T13:34:47.230Z,32.50
2018-09-27T13:37:19.590Z,32.60
2018-09-27T13:39:50.394Z,32.80
2018-09-27T13:42:21.332Z,32.10
2018-09-27T13:44:52.801Z,31.30
2018-09-27T13:47:24.352Z,30.40
2018-09-27T13:49:58.827Z,30.80
2018-09-27T13:52:29.944Z,30.10
2018-09-27T13:55:02.580Z,30.30
2018-09-27T13:57:34.090Z,31.00
2018-09-27T14:00:04.779Z,31.50
2018-09-27T14:02:35.837Z,31.60
2018-09-27T14:05:07.157Z,31.50
2018-09-27T14:07:37.902Z,31.10
2018-09-27T14:10:08.804Z,30.60
2018-09-27T14:12:39.659Z,30.60
2018-09-27T14:15:10.852Z,31.40
2018-09-27T14:17:41.626Z,30.40
2018-09-27T14:20:12.276Z,30.50
2018-09-27T14:22:44.128Z,30.90
2018-09-27T14:25:16.399Z,31.00
2018-09-27T14:27:48.231Z,30.70
2018-09-27T14:30:21.383Z,30.60
2018-09-27T14:32:55.334Z,30.30
2018-09-27T14:35:28.056Z,30.20
2018-09-27T14:38:00.403Z,29.80
2018-09-27T14:40:32.026Z,30.00
2018-09-27T14:43:04.425Z,30.20
2018-09-27T14:45:36.166Z,30.40
2018-09-27T14:48:09.095Z,30.00
2018-09-27T14:50:41.872Z,30.10
2018-09-27T14:53:13.633Z,30.30
2018-09-27T14:55:50.061Z,30.20
2018-09-27T14:58:21.410Z,29.90
2018-09-27T15:00:59.473Z,29.60
2018-09-27T15:03:33.018Z,29.10
2018-09-27T15:06:04.994Z,29.00
2018-09-27T15:08:35.737Z,29.00
2018-09-27T15:11:06.549Z,29.00
2018-09-27T15:13:37.242Z,29.20
2018-09-27T15:16:07.784Z,29.60
2018-09-27T15:18:39.151Z,29.70
2018-09-27T15:21:09.825Z,29.50
2018-09-27T15:23:40.439Z,29.10
2018-09-27T15:26:11.069Z,28.70
2018-09-27T15:28:41.711Z,28.30
2018-09-27T15:31:12.803Z,28.30
2018-09-27T15:33:43.771Z,28.50
2018-09-27T15:36:15.015Z,28.40
2018-09-27T15:38:46.314Z,28.40
2018-09-27T15:41:16.883Z,28.40
2018-09-27T15:43:47.763Z,27.90
2018-09-27T15:46:18.609Z,27.90
2018-09-27T15:48:49.336Z,27.70
2018-09-27T15:51:20.150Z,27.60
2018-09-27T15:53:50.936Z,27.40
2018-09-27T15:56:21.458Z,27.10
2018-09-27T15:58:52.952Z,27.00
2018-09-27T16:01:23.513Z,27.00
2018-09-27T16:03:54.078Z,26.70
2018-09-27T16:06:24.747Z,26.60
2018-09-27T16:08:55.462Z,26.70
2018-09-27T16:11:25.923Z,26.60
2018-09-27T16:13:56.619Z,26.30
2018-09-27T16:16:27.105Z,26.20
2018-09-27T16:18:57.799Z,25.60
2018-09-27T16:21:28.453Z,25.60
2018-09-27T16:23:59.156Z,25.50
2018-09-27T16:26:29.866Z,25.40
2018-09-27T16:29:00.324Z,25.50
2018-09-27T16:31:31.092Z,25.30
2018-09-27T16:34:01.491Z,25.20
2018-09-27T16:36:33.036Z,24.80
2018-09-27T16:39:05.692Z,24.60
2018-09-27T16:41:36.532Z,24.50
2018-09-27T16:44:07.610Z,24.20
2018-09-27T16:46:38.622Z,24.00
2018-09-27T16:49:09.510Z,23.90
2018-09-27T16:51:40.720Z,23.70
2018-09-27T16:54:11.508Z,23.50
2018-09-27T16:56:42.201Z,23.40
2018-09-27T16:59:13.803Z,23.20
2018-09-27T17:01:44.875Z,23.10
2018-09-27T17:04:16.834Z,23.00
2018-09-27T17:06:47.543Z,22.90
2018-09-27T17:09:18.702Z,22.70
2018-09-27T17:11:49.553Z,22.60
2018-09-27T17:14:20.631Z,22.50
2018-09-27T17:16:51.519Z,22.30
2018-09-27T17:19:23.266Z,22.20
2018-09-27T17:21:54.919Z,22.10
2018-09-27T17:24:25.892Z,22.00
2018-09-27T17:26:57.126Z,21.70
2018-09-27T17:29:28.562Z,21.60
2018-09-27T17:31:59.408Z,21.40
2018-09-27T17:34:30.241Z,21.20
2018-09-27T17:37:01.510Z,21.10
2018-09-27T17:39:32.504Z,20.90
2018-09-27T17:42:03.832Z,20.70
2018-09-27T17:44:34.486Z,20.60
2018-09-27T17:47:06.062Z,20.50
2018-09-27T17:49:38.798Z,20.20
2018-09-27T17:52:11.281Z,20.00
2018-09-27T17:54:42.925Z,19.90
2018-09-27T17:57:14.732Z,19.70
2018-09-27T17:59:46.607Z,19.50
2018-09-27T18:02:18.332Z,19.20
2018-09-27T18:04:49.318Z,19.00
2018-09-27T18:07:20.411Z,18.90
2018-09-27T18:09:51.505Z,18.80
2018-09-27T18:12:22.358Z,18.60
2018-09-27T18:14:53.465Z,18.50
2018-09-27T18:17:25.479Z,18.40
2018-09-27T18:19:58.010Z,18.30
2018-09-27T18:22:30.911Z,18.00
2018-09-27T18:25:01.826Z,17.80
2018-09-27T18:27:34.748Z,17.70
2018-09-27T18:30:05.655Z,17.50
2018-09-27T18:32:36.656Z,17.40
2018-09-27T18:35:07.436Z,17.40
2018-09-27T18:37:40.653Z,17.20
2018-09-27T18:40:12.132Z,17.20
2018-09-27T18:42:43.059Z,17.10
2018-09-27T18:45:16.004Z,17.00
2018-09-27T18:47:47.553Z,16.90
2018-09-27T18:50:19.063Z,16.80
2018-09-27T18:52:50.525Z,16.60
2018-09-27T18:55:21.550Z,16.60
2018-09-27T18:57:52.380Z,16.50
2018-09-27T19:00:23.768Z,16.30
2018-09-27T19:02:54.618Z,16.20
2018-09-27T19:05:25.778Z,16.20
2018-09-27T19:07:56.539Z,16.10
2018-09-27T19:10:27.309Z,16.00
2018-09-27T19:12:57.939Z,15.80
2018-09-27T19:15:28.804Z,15.70
2018-09-27T19:17:59.589Z,15.60
2018-09-27T19:20:30.236Z,15.60
2018-09-27T19:23:01.351Z,15.50
2018-09-27T19:25:33.549Z,15.50
2018-09-27T19:28:04.615Z,15.60
2018-09-27T19:30:36.717Z,15.60
2018-09-27T19:33:07.661Z,15.70
2018-09-27T19:35:39.107Z,15.80
2018-09-27T19:38:10.172Z,15.80
2018-09-27T19:40:41.099Z,15.80
2018-09-27T19:43:12.221Z,15.60
2018-09-27T19:45:43.428Z,15.30
2018-09-27T19:48:14.847Z,15.20
2018-09-27T19:50:46.408Z,15.20
2018-09-27T19:53:17.636Z,15.20
2018-09-27T19:55:49.718Z,15.00
2018-09-27T19:58:20.689Z,14.80
2018-09-27T20:00:51.663Z,14.70
2018-09-27T20:03:22.558Z,14.60
2018-09-27T20:05:53.587Z,14.60
2018-09-27T20:08:26.382Z,14.50
2018-09-27T20:11:00.865Z,14.50
2018-09-27T20:13:37.708Z,14.60
2018-09-27T20:16:08.966Z,14.60
2018-09-27T20:18:40.924Z,14.60
2018-09-27T20:21:11.701Z,14.60
2018-09-27T20:23:42.360Z,14.50
2018-09-27T20:26:14.848Z,14.30
2018-09-27T20:28:45.728Z,14.20
2018-09-27T20:31:17.657Z,14.10
2018-09-27T20:33:49.378Z,14.10
2018-09-27T20:36:20.152Z,14.10
2018-09-27T20:38:50.852Z,14.10
2018-09-27T20:41:21.546Z,14.00
2018-09-27T20:43:52.371Z,13.90
2018-09-27T20:46:23.232Z,13.80
2018-09-27T20:48:53.891Z,13.80
2018-09-27T20:51:24.712Z,13.80
2018-09-27T20:53:56.826Z,13.80
2018-09-27T20:56:27.550Z,13.80
2018-09-27T20:58:58.139Z,13.90
2018-09-27T21:01:28.922Z,13.90
2018-09-27T21:03:59.524Z,13.90
2018-09-27T21:06:30.042Z,13.80
2018-09-27T21:09:00.608Z,13.70
2018-09-27T21:11:31.232Z,13.60
2018-09-27T21:14:01.940Z,13.60
2018-09-27T21:16:32.554Z,13.60
2018-09-27T21:19:03.454Z,13.60
2018-09-27T21:21:34.059Z,13.60
2018-09-27T21:24:04.950Z,13.50
2018-09-27T21:26:35.775Z,13.50
2018-09-27T21:29:06.455Z,13.50
2018-09-27T21:31:38.160Z,13.50
2018-09-27T21:34:08.949Z,13.40
2018-09-27T21:36:41.389Z,13.40
2018-09-27T21:39:11.978Z,13.20
2018-09-27T21:41:42.558Z,13.30
2018-09-27T21:44:13.087Z,13.30
2018-09-27T21:46:43.694Z,13.20
2018-09-27T21:49:14.401Z,13.20
2018-09-27T21:51:45.071Z,13.10
2018-09-27T21:54:15.569Z,13.10
2018-09-27T21:56:46.219Z,13.00
2018-09-27T21:59:16.955Z,13.00
2018-09-27T22:01:48.738Z,13.00
2018-09-27T22:04:19.181Z,13.00
2018-09-27T22:06:50.773Z,12.90
2018-09-27T22:09:21.455Z,12.90
2018-09-27T22:11:52.048Z,12.80
2018-09-27T22:14:22.504Z,12.70
2018-09-27T22:16:53.012Z,12.50
2018-09-27T22:19:23.611Z,12.30
2018-09-27T22:21:54.055Z,12.20
2018-09-27T22:24:25.098Z,12.20
2018-09-27T22:26:55.640Z,12.20
2018-09-27T22:29:26.185Z,12.10
2018-09-27T22:31:56.723Z,12.00
2018-09-27T22:34:27.442Z,12.00
2018-09-27T22:36:57.977Z,12.00
2018-09-27T22:39:28.693Z,11.80
2018-09-27T22:41:59.291Z,11.70
2018-09-27T22:44:29.928Z,11.70
2018-09-27T22:47:00.482Z,11.70
2018-09-27T22:49:31.146Z,11.60
2018-09-27T22:52:01.730Z,11.60
2018-09-27T22:54:32.736Z,11.60
2018-09-27T22:57:03.291Z,11.50
2018-09-27T22:59:35.963Z,11.40
2018-09-27T23:02:06.505Z,11.20
2018-09-27T23:04:37.093Z,11.10
2018-09-27T23:07:07.784Z,11.20
2018-09-27T23:09:38.319Z,11.20
2018-09-27T23:12:08.904Z,11.10
2018-09-27T23:14:39.687Z,11.10
2018-09-27T23:17:10.406Z,11.10
2018-09-27T23:19:40.850Z,11.20
2018-09-27T23:22:11.537Z,11.20
2018-09-27T23:24:42.136Z,11.00
2018-09-27T23:27:12.444Z,10.90
2018-09-27T23:29:42.951Z,10.80
2018-09-27T23:32:13.523Z,10.80
2018-09-27T23:34:44.109Z,10.90
2018-09-27T23:37:14.611Z,10.90
2018-09-27T23:39:45.068Z,10.90
2018-09-27T23:42:15.576Z,11.00
2018-09-27T23:44:46.200Z,10.90
2018-09-27T23:47:16.622Z,11.00
2018-09-27T23:49:47.119Z,10.90
2018-09-27T23:52:17.667Z,10.80
2018-09-27T23:54:48.187Z,10.80
2018-09-27T23:57:18.664Z,10.80
2018-09-27T23:59:49.313Z,10.50
